createdAt,value
2018-08-20T00:00:27.156Z,59.20
2018-08-20T00:05:35.473Z,59.20
2018-08-20T00:10:38.443Z,59.30
2018-08-20T00:15:41.382Z,59.30
2018-08-20T00:20:44.782Z,59.10
2018-08-20T00:25:47.751Z,59.90
2018-08-20T00:30:50.745Z,60.10
2018-08-20T00:35:53.711Z,59.70
2018-08-20T00:40:56.623Z,59.70
2018-08-20T00:45:59.546Z,60.20
2018-08-20T00:51:02.502Z,60.10
2018-08-20T00:56:05.416Z,60.60
2018-08-20T01:01:08.363Z,61.20
2018-08-20T01:06:11.315Z,61.40
2018-08-20T01:11:14.362Z,62.10
2018-08-20T01:16:17.431Z,62.20
2018-08-20T01:21:20.413Z,62.20
2018-08-20T01:26:23.339Z,62.30
2018-08-20T01:31:26.275Z,62.30
2018-08-20T01:36:29.208Z,62.10
2018-08-20T01:41:32.278Z,64.20
2018-08-20T01:46:35.224Z,66.40
2018-08-20T01:51:38.206Z,66.40
2018-08-20T01:56:41.214Z,65.90
2018-08-20T02:01:44.161Z,64.40
2018-08-20T02:06:47.188Z,66.20
2018-08-20T02:11:50.207Z,66.60
2018-08-20T02:16:53.172Z,67.10
2018-08-20T02:21:56.102Z,66.90
2018-08-20T02:26:59.008Z,66.40
2018-08-20T02:32:01.915Z,66.60
2018-08-20T02:37:05.359Z,66.10
2018-08-20T02:42:08.345Z,66.10
2018-08-20T02:47:11.315Z,66.00
2018-08-20T02:52:14.276Z,65.20
2018-08-20T02:57:17.244Z,66.80
2018-08-20T03:02:20.175Z,67.30
2018-08-20T03:07:23.235Z,69.00
2018-08-20T03:12:26.141Z,69.10
2018-08-20T03:17:29.037Z,69.00
2018-08-20T03:22:31.977Z,68.50
2018-08-20T03:27:34.887Z,68.20
2018-08-20T03:32:38.488Z,67.90
2018-08-20T03:37:41.461Z,66.40
2018-08-20T03:42:44.448Z,67.80
2018-08-20T03:47:47.430Z,68.20
2018-08-20T03:52:50.335Z,68.00
2018-08-20T03:57:53.267Z,68.20
2018-08-20T04:02:56.189Z,68.30
2018-08-20T04:07:59.092Z,68.60
2018-08-20T04:13:02.086Z,68.30
2018-08-20T04:18:05.092Z,67.90
2018-08-20T04:23:08.012Z,67.90
2018-08-20T04:28:10.982Z,68.00
2018-08-20T04:33:13.925Z,67.30
2018-08-20T04:38:16.876Z,67.40
2018-08-20T04:43:19.770Z,66.10
2018-08-20T04:48:22.697Z,67.70
2018-08-20T04:53:25.983Z,67.80
2018-08-20T04:58:29.208Z,67.10
2018-08-20T05:03:32.108Z,66.20
2018-08-20T05:08:35.005Z,66.10
2018-08-20T05:13:37.996Z,65.20
2018-08-20T05:18:41.164Z,62.80
2018-08-20T05:23:44.114Z,57.10
2018-08-20T05:28:47.090Z,53.20
2018-08-20T05:33:50.091Z,51.00
2018-08-20T05:38:53.119Z,50.20
2018-08-20T05:43:56.106Z,47.90
2018-08-20T05:48:59.066Z,47.20
2018-08-20T05:54:02.037Z,44.30
2018-08-20T05:59:05.119Z,43.60
2018-08-20T06:04:08.218Z,43.50
2018-08-20T06:09:11.345Z,41.40
2018-08-20T06:14:14.351Z,42.10
2018-08-20T06:19:17.349Z,41.50
2018-08-20T06:24:21.199Z,43.90
2018-08-20T06:29:24.164Z,46.30
2018-08-20T06:34:27.139Z,44.70
2018-08-20T06:39:30.088Z,45.40
2018-08-20T06:44:35.303Z,46.60
2018-08-20T06:49:38.361Z,44.20
2018-08-20T06:54:41.471Z,42.60
2018-08-20T06:59:44.444Z,45.00
2018-08-20T07:04:47.422Z,46.90
2018-08-20T07:09:50.464Z,47.70
2018-08-20T07:14:53.524Z,49.10
2018-08-20T07:19:56.501Z,48.90
2018-08-20T07:24:59.484Z,47.70
2018-08-20T07:30:02.480Z,45.90
2018-08-20T07:35:05.873Z,42.70
2018-08-20T07:40:08.899Z,46.10
2018-08-20T07:45:12.033Z,48.30
2018-08-20T07:50:15.000Z,49.10
2018-08-20T07:55:18.004Z,49.00
2018-08-20T08:00:21.227Z,48.30
2018-08-20T08:05:24.300Z,46.50
2018-08-20T08:10:27.371Z,45.90
2018-08-20T08:15:30.385Z,46.50
2018-08-20T08:20:33.365Z,47.50
2018-08-20T08:25:36.460Z,47.40
2018-08-20T08:30:39.747Z,48.10
2018-08-20T08:35:42.753Z,48.90
2018-08-20T08:40:45.748Z,50.10
2018-08-20T08:45:48.798Z,47.80
2018-08-20T08:50:51.823Z,48.00
2018-08-20T08:55:54.779Z,48.20
2018-08-20T09:00:57.814Z,47.40
2018-08-20T09:06:02.316Z,48.00
2018-08-20T09:11:05.337Z,47.00
2018-08-20T09:16:08.456Z,45.50
2018-08-20T09:21:11.447Z,42.60
2018-08-20T09:26:14.431Z,43.20
2018-08-20T09:31:17.436Z,45.10
2018-08-20T09:36:20.440Z,45.60
2018-08-20T09:41:23.437Z,47.60
2018-08-20T09:46:26.521Z,44.60
2018-08-20T09:51:29.985Z,45.40
2018-08-20T09:56:33.058Z,45.40
2018-08-20T10:01:36.176Z,45.70
2018-08-20T10:06:39.168Z,46.60
2018-08-20T10:11:42.159Z,46.80
2018-08-20T10:16:45.173Z,44.90
2018-08-20T10:21:48.548Z,45.70
2018-08-20T10:26:51.627Z,44.40
2018-08-20T10:31:54.656Z,43.70
2018-08-20T10:36:57.632Z,43.60
2018-08-20T10:42:01.084Z,42.60
2018-08-20T10:47:04.209Z,42.80
2018-08-20T10:52:07.260Z,43.20
2018-08-20T10:57:10.304Z,44.20
2018-08-20T11:02:13.320Z,45.40
2018-08-20T11:07:16.288Z,45.50
2018-08-20T11:12:19.511Z,47.60
2018-08-20T11:17:22.485Z,43.80
2018-08-20T11:22:25.440Z,42.90
2018-08-20T11:27:28.516Z,42.60
2018-08-20T11:32:31.433Z,41.20
2018-08-20T11:37:34.428Z,39.70
2018-08-20T11:42:37.461Z,38.50
2018-08-20T11:47:40.945Z,38.30
2018-08-20T11:52:43.939Z,40.30
2018-08-20T11:57:46.932Z,39.90
2018-08-20T12:02:49.909Z,39.20
2018-08-20T12:07:52.954Z,39.70
2018-08-20T12:12:55.983Z,39.40
2018-08-20T12:17:59.002Z,37.80
2018-08-20T12:23:02.039Z,38.30
2018-08-20T12:28:05.184Z,39.30
2018-08-20T12:33:09.023Z,38.60
2018-08-20T12:38:12.113Z,38.50
2018-08-20T12:43:15.124Z,37.70
2018-08-20T12:48:18.127Z,37.50
2018-08-20T12:53:21.128Z,37.00
2018-08-20T12:58:24.176Z,37.60
2018-08-20T13:03:27.252Z,37.30
2018-08-20T13:08:30.188Z,37.20
2018-08-20T13:13:33.294Z,40.30
2018-08-20T13:18:36.273Z,41.70
2018-08-20T13:23:39.244Z,40.70
2018-08-20T13:28:42.342Z,39.20
2018-08-20T13:33:45.290Z,39.30
2018-08-20T13:38:48.258Z,40.50
2018-08-20T13:43:51.268Z,41.60
2018-08-20T13:48:54.264Z,42.40
2018-08-20T13:53:57.254Z,41.00
2018-08-20T13:59:00.332Z,40.70
2018-08-20T14:04:03.347Z,39.00
2018-08-20T14:09:08.611Z,39.90
2018-08-20T14:14:11.522Z,39.40
2018-08-20T14:19:14.530Z,39.10
2018-08-20T14:24:17.482Z,37.70
2018-08-20T14:29:20.530Z,38.30
2018-08-20T14:34:23.489Z,37.70
2018-08-20T14:39:26.429Z,37.70
2018-08-20T14:44:29.357Z,39.10
2018-08-20T14:49:32.384Z,38.40
2018-08-20T14:54:35.379Z,40.00
2018-08-20T14:59:38.365Z,39.00
2018-08-20T15:04:41.466Z,38.20
2018-08-20T15:09:44.540Z,38.70
2018-08-20T15:14:47.587Z,39.50
2018-08-20T15:19:50.650Z,40.90
2018-08-20T15:24:53.703Z,40.60
2018-08-20T15:29:56.728Z,40.80
2018-08-20T15:34:59.843Z,40.60
2018-08-20T15:40:03.044Z,43.00
2018-08-20T15:45:06.212Z,43.50
2018-08-20T15:50:09.332Z,44.60
2018-08-20T15:55:12.728Z,44.40
2018-08-20T16:00:15.881Z,45.00
2018-08-20T16:05:19.212Z,45.00
2018-08-20T16:10:22.270Z,44.50
2018-08-20T16:15:25.319Z,45.40
2018-08-20T16:20:28.339Z,45.10
2018-08-20T16:25:31.426Z,45.60
2018-08-20T16:30:34.428Z,45.10
2018-08-20T16:35:37.526Z,43.90
2018-08-20T16:40:40.632Z,45.40
2018-08-20T16:45:43.648Z,45.90
2018-08-20T16:50:46.737Z,46.00
2018-08-20T16:55:49.805Z,46.80
2018-08-20T17:00:52.854Z,47.10
2018-08-20T17:05:57.275Z,48.20
2018-08-20T17:11:01.237Z,48.00
2018-08-20T17:16:04.437Z,48.80
2018-08-20T17:21:07.633Z,49.30
2018-08-20T17:26:10.741Z,49.30
2018-08-20T17:31:13.908Z,50.00
2018-08-20T17:36:16.733Z,50.20
2018-08-20T17:41:19.833Z,50.40
2018-08-20T17:46:22.864Z,51.40
2018-08-20T17:51:25.922Z,52.00
2018-08-20T17:56:28.966Z,52.30
2018-08-20T18:01:35.944Z,53.30
2018-08-20T18:06:51.652Z,53.80
2018-08-20T18:11:55.310Z,54.50
2018-08-20T18:16:58.430Z,54.90
2018-08-20T18:22:01.511Z,55.70
2018-08-20T18:27:04.597Z,56.20
2018-08-20T18:32:07.702Z,56.70
2018-08-20T18:37:10.971Z,57.00
2018-08-20T18:42:18.653Z,57.40
2018-08-20T18:47:23.030Z,57.80
2018-08-20T18:52:29.906Z,57.70
2018-08-20T18:57:35.390Z,57.80
2018-08-20T19:02:47.512Z,57.30
2018-08-20T19:07:51.044Z,57.20
2018-08-20T19:12:54.178Z,56.90
2018-08-20T19:17:57.353Z,57.00
2018-08-20T19:50:42.366Z,55.40
2018-08-20T19:55:45.520Z,55.70
2018-08-20T20:01:05.927Z,55.60
2018-08-20T20:06:09.183Z,55.70
2018-08-20T20:11:30.098Z,56.70
2018-08-20T20:16:40.017Z,56.10
2018-08-20T20:21:43.209Z,56.20
2018-08-20T20:26:46.264Z,56.10
2018-08-20T20:31:49.306Z,56.60
2018-08-20T20:36:52.535Z,56.80
2018-08-20T20:41:55.562Z,56.80
2018-08-20T20:46:58.887Z,56.60
2018-08-20T20:52:02.493Z,56.60
2018-08-20T20:57:05.664Z,56.90
2018-08-20T21:02:09.691Z,57.10
2018-08-20T21:07:20.171Z,57.00
2018-08-20T21:12:23.208Z,57.20
2018-08-20T21:17:26.591Z,57.60
2018-08-20T22:46:16.884Z,63.10
2018-08-20T22:51:20.703Z,63.80
2018-08-20T22:56:34.212Z,64.40
2018-08-20T23:01:37.457Z,64.50
2018-08-20T23:06:40.680Z,64.70
2018-08-20T23:11:43.732Z,64.60
2018-08-20T23:16:49.503Z,64.50
2018-08-20T23:21:53.759Z,64.20
2018-08-20T23:26:56.757Z,63.70
2018-08-20T23:31:59.901Z,63.80
2018-08-20T23:37:03.099Z,63.40
2018-08-20T23:42:06.103Z,63.00
2018-08-20T23:47:09.114Z,62.60
2018-08-20T23:52:12.327Z,62.10
2018-08-20T23:57:15.519Z,62.30
